Time;durP1;ratioP1;P1;durP2;ratioP2;P2;SDS_P1;SDS_P2;PMS_P1;PMS_P2;Temp;Humidity;BMP_temperature;BMP_pressure;BME280_temperature;BME280_humidity;BME280_pressure;Samples;Min_cycle;Max_cycle;Signal;HPM_P1;HPM_P2
2023/12/12 00:01:30;;;;;;;12.60;5.07;;;;;;;6.45;100.00;100658.25;5025532;28;20069;-67
2023/12/12 00:03:56;;;;;;;10.93;5.95;;;;;;;6.42;100.00;100655.72;5018093;28;20086;-66
2023/12/12 00:06:21;;;;;;;16.40;5.95;;;;;;;6.45;100.00;100669.69;5015567;28;20567;-67
2023/12/12 00:08:46;;;;;;;11.38;5.82;;;;;;;6.48;100.00;100669.59;5023284;28;20014;-67
2023/12/12 00:11:12;;;;;;;11.32;5.97;;;;;;;6.51;100.00;100667.75;5011410;28;20109;-67
2023/12/12 00:13:37;;;;;;;14.93;6.40;;;;;;;6.52;100.00;100665.06;5022264;28;20041;-66
2023/12/12 00:16:03;;;;;;;15.65;6.32;;;;;;;6.54;100.00;100667.63;5022891;28;20415;-67
2023/12/12 00:18:28;;;;;;;17.40;6.63;;;;;;;6.54;100.00;100668.50;5031049;28;20039;-68
2023/12/12 00:20:54;;;;;;;14.10;6.60;;;;;;;6.49;100.00;100657.22;5029882;28;20495;-66
2023/12/12 00:23:19;;;;;;;18.15;6.57;;;;;;;6.52;100.00;100672.09;5020364;28;20126;-66
2023/12/12 00:25:44;;;;;;;19.13;6.97;;;;;;;6.51;100.00;100658.03;5024448;28;20033;-66
2023/12/12 00:28:12;;;;;;;15.30;6.25;;;;;;;6.53;100.00;100661.50;5032983;28;20040;-66
2023/12/12 00:30:38;;;;;;;19.70;6.32;;;;;;;6.55;100.00;100659.63;5019529;28;20038;-67
2023/12/12 00:33:03;;;;;;;18.50;6.63;;;;;;;6.55;100.00;100661.41;5015914;28;20070;-66
2023/12/12 00:35:29;;;;;;;15.43;6.60;;;;;;;6.51;100.00;100659.81;5022853;28;20048;-65
2023/12/12 00:37:54;;;;;;;19.05;6.63;;;;;;;6.48;100.00;100664.31;5026282;28;20096;-66
2023/12/12 00:40:19;;;;;;;16.67;6.93;;;;;;;6.49;100.00;100660.72;5014557;28;20057;-66
2023/12/12 00:42:45;;;;;;;20.45;6.40;;;;;;;6.46;100.00;100662.63;5024281;28;20028;-66
2023/12/12 00:45:10;;;;;;;15.02;5.63;;;;;;;6.47;100.00;100659.91;5022511;28;20107;-66
2023/12/12 00:47:36;;;;;;;13.70;5.82;;;;;;;6.44;100.00;100651.25;5018132;28;20026;-66
2023/12/12 00:50:01;;;;;;;13.45;5.80;;;;;;;6.44;100.00;100652.13;5017108;28;20480;-67
2023/12/12 00:52:27;;;;;;;17.55;6.53;;;;;;;6.41;100.00;100656.66;5015923;28;20526;-66
2023/12/12 00:54:52;;;;;;;18.27;5.93;;;;;;;6.35;100.00;100655.06;5021226;28;20029;-66
2023/12/12 00:57:17;;;;;;;20.27;7.10;;;;;;;6.31;100.00;100653.50;5025941;28;20029;-66
2023/12/12 00:59:43;;;;;;;18.90;7.20;;;;;;;6.29;100.00;100650.03;5033607;28;20339;-67
2023/12/12 01:02:08;;;;;;;16.73;6.00;;;;;;;6.26;100.00;100646.63;5024316;28;20029;-66
2023/12/12 01:04:34;;;;;;;14.73;6.43;;;;;;;6.19;100.00;100643.34;5024375;28;20168;-66
2023/12/12 01:07:00;;;;;;;14.23;6.18;;;;;;;6.16;100.00;100649.59;5036353;28;20545;-68
2023/12/12 01:09:26;;;;;;;18.05;6.45;;;;;;;6.11;100.00;100648.06;5032301;28;20296;-66
2023/12/12 01:11:51;;;;;;;15.95;5.97;;;;;;;6.04;100.00;100641.25;5024024;28;20017;-66
2023/12/12 01:14:16;;;;;;;15.15;6.45;;;;;;;5.94;100.00;100644.22;5031817;28;20033;-67
2023/12/12 01:16:42;;;;;;;18.38;5.95;;;;;;;5.85;100.00;100644.50;5036607;28;20512;-68
2023/12/12 01:19:07;;;;;;;21.55;6.50;;;;;;;5.78;100.00;100643.00;5025095;28;20087;-66
2023/12/12 01:21:32;;;;;;;20.50;6.65;;;;;;;5.69;100.00;100636.25;5030040;28;20985;-66
2023/12/12 01:23:58;;;;;;;15.00;6.57;;;;;;;5.65;100.00;100631.13;5022323;28;20518;-66
2023/12/12 01:26:23;;;;;;;20.85;6.80;;;;;;;5.52;100.00;100629.78;5039623;28;20276;-66
2023/12/12 01:28:49;;;;;;;23.92;7.70;;;;;;;5.45;100.00;100626.50;5028097;28;20052;-68
2023/12/12 01:31:16;;;;;;;16.23;6.88;;;;;;;5.39;100.00;100626.69;5013117;28;20083;-67
2023/12/12 01:33:41;;;;;;;20.98;7.60;;;;;;;5.32;100.00;100630.47;5015502;28;20356;-67
2023/12/12 01:36:07;;;;;;;24.00;7.00;;;;;;;5.22;100.00;100622.84;5030488;28;20564;-67
2023/12/12 01:38:32;;;;;;;18.25;6.78;;;;;;;5.12;100.00;100621.41;5023083;28;20064;-67
2023/12/12 01:40:58;;;;;;;20.08;6.68;;;;;;;5.02;100.00;100621.72;5023233;28;20029;-67
2023/12/12 01:43:28;;;;;;;19.23;7.18;;;;;;;4.95;100.00;100619.31;5027389;28;20040;-67
2023/12/12 01:45:56;;;;;;;23.75;7.40;;;;;;;4.92;100.00;100629.94;5036831;28;20515;-67
2023/12/12 01:48:23;;;;;;;17.63;7.35;;;;;;;4.90;100.00;100625.63;5024391;28;20072;-67
2023/12/12 01:50:52;;;;;;;20.45;8.32;;;;;;;4.89;100.00;100624.78;5024219;28;20049;-67
2023/12/12 01:53:21;;;;;;;23.50;8.35;;;;;;;4.87;100.00;100631.84;5021777;28;20506;-67
2023/12/12 01:55:51;;;;;;;23.48;8.07;;;;;;;4.88;100.00;100635.34;5027892;28;20075;-67
2023/12/12 01:58:17;;;;;;;24.35;7.95;;;;;;;4.86;100.00;100627.50;5027015;28;20029;-67
2023/12/12 02:00:43;;;;;;;25.48;7.70;;;;;;;4.78;100.00;100633.91;5019853;28;20160;-67
2023/12/12 02:03:08;;;;;;;17.83;7.30;;;;;;;4.71;100.00;100628.81;5022125;28;20406;-67
2023/12/12 02:05:39;;;;;;;16.33;7.32;;;;;;;4.67;100.00;100631.59;5030372;28;20511;-67
2023/12/12 02:08:05;;;;;;;17.15;8.05;;;;;;;4.63;100.00;100622.06;5019381;28;20056;-67
2023/12/12 02:10:31;;;;;;;23.35;8.38;;;;;;;4.63;100.00;100628.19;5028611;28;20575;-68
2023/12/12 02:12:56;;;;;;;21.38;8.85;;;;;;;4.60;100.00;100630.94;5022027;28;20029;-69
2023/12/12 02:15:21;;;;;;;22.35;8.20;;;;;;;4.58;100.00;100623.97;5021458;28;20538;-67
2023/12/12 02:17:47;;;;;;;20.52;8.10;;;;;;;4.60;100.00;100627.41;5018454;28;20044;-67
2023/12/12 02:20:13;;;;;;;21.55;8.20;;;;;;;4.57;100.00;100619.63;5023202;28;20029;-68
2023/12/12 02:22:38;;;;;;;19.83;7.80;;;;;;;4.56;100.00;100616.13;5012499;28;20030;-68
2023/12/12 02:25:05;;;;;;;22.25;9.38;;;;;;;4.53;100.00;100616.19;5026037;28;20040;-69
